sensor_id;sensor_type;location;lat;lon;timestamp;temperature;humidity
20891;DHT22;10605;52.968;8.844;2022-09-09T00:00:22;13.80;99.90
20891;DHT22;10605;52.968;8.844;2022-09-09T00:02:57;13.80;99.90
20891;DHT22;10605;52.968;8.844;2022-09-09T00:05:29;13.80;99.90
20891;DHT22;10605;52.968;8.844;2022-09-09T00:07:59;13.90;99.90
20891;DHT22;10605;52.968;8.844;2022-09-09T00:23:48;13.60;99.90
20891;DHT22;10605;52.968;8.844;2022-09-09T00:28:55;13.70;99.90
20891;DHT22;10605;52.968;8.844;2022-09-09T00:31:27;13.70;99.90
20891;DHT22;10605;52.968;8.844;2022-09-09T00:33:56;13.60;99.90
20891;DHT22;10605;52.968;8.844;2022-09-09T00:36:25;13.60;99.90
20891;DHT22;10605;52.968;8.844;2022-09-09T00:38:59;13.60;99.90
20891;DHT22;10605;52.968;8.844;2022-09-09T00:46:55;13.70;99.90
20891;DHT22;10605;52.968;8.844;2022-09-09T00:49:53;13.70;99.90
20891;DHT22;10605;52.968;8.844;2022-09-09T00:52:42;13.60;99.90
20891;DHT22;10605;52.968;8.844;2022-09-09T00:55:19;13.70;99.90
20891;DHT22;10605;52.968;8.844;2022-09-09T00:57:48;13.60;99.90
20891;DHT22;10605;52.968;8.844;2022-09-09T01:00:19;13.60;99.90
20891;DHT22;10605;52.968;8.844;2022-09-09T01:05:44;13.60;99.90
20891;DHT22;10605;52.968;8.844;2022-09-09T01:10:56;13.50;99.90
20891;DHT22;10605;52.968;8.844;2022-09-09T01:13:31;13.40;99.90
20891;DHT22;10605;52.968;8.844;2022-09-09T01:16:00;13.40;99.90
20891;DHT22;10605;52.968;8.844;2022-09-09T01:18:30;13.30;99.90
20891;DHT22;10605;52.968;8.844;2022-09-09T01:26:40;13.40;99.90
20891;DHT22;10605;52.968;8.844;2022-09-09T01:29:12;13.30;99.90
20891;DHT22;10605;52.968;8.844;2022-09-09T01:32:01;13.20;99.90
20891;DHT22;10605;52.968;8.844;2022-09-09T01:34:36;13.20;99.90
20891;DHT22;10605;52.968;8.844;2022-09-09T01:37:06;13.20;99.90
20891;DHT22;10605;52.968;8.844;2022-09-09T01:39:34;13.10;99.90
20891;DHT22;10605;52.968;8.844;2022-09-09T01:42:01;13.10;99.90
20891;DHT22;10605;52.968;8.844;2022-09-09T01:44:28;13.10;99.90
20891;DHT22;10605;52.968;8.844;2022-09-09T01:46:55;13.00;99.90
20891;DHT22;10605;52.968;8.844;2022-09-09T01:49:21;12.90;99.90
20891;DHT22;10605;52.968;8.844;2022-09-09T01:51:52;12.90;99.90
20891;DHT22;10605;52.968;8.844;2022-09-09T01:54:19;12.90;99.90
20891;DHT22;10605;52.968;8.844;2022-09-09T01:59:45;12.90;99.90
20891;DHT22;10605;52.968;8.844;2022-09-09T02:02:39;12.90;99.90
20891;DHT22;10605;52.968;8.844;2022-09-09T02:05:30;12.90;99.90
20891;DHT22;10605;52.968;8.844;2022-09-09T02:08:14;12.90;99.90
20891;DHT22;10605;52.968;8.844;2022-09-09T02:10:58;12.90;99.90
20891;DHT22;10605;52.968;8.844;2022-09-09T02:13:27;12.80;99.90
20891;DHT22;10605;52.968;8.844;2022-09-09T02:18:49;12.70;99.90
20891;DHT22;10605;52.968;8.844;2022-09-09T02:21:17;12.80;99.90
20891;DHT22;10605;52.968;8.844;2022-09-09T02:23:43;12.70;99.90
20891;DHT22;10605;52.968;8.844;2022-09-09T02:26:13;12.80;99.90
20891;DHT22;10605;52.968;8.844;2022-09-09T02:28:46;12.80;99.90
20891;DHT22;10605;52.968;8.844;2022-09-09T02:31:13;12.80;99.90
20891;DHT22;10605;52.968;8.844;2022-09-09T02:33:42;12.80;99.90
20891;DHT22;10605;52.968;8.844;2022-09-09T02:36:10;12.70;99.90
20891;DHT22;10605;52.968;8.844;2022-09-09T02:38:42;12.70;99.90
20891;DHT22;10605;52.968;8.844;2022-09-09T02:41:08;12.70;99.90
20891;DHT22;10605;52.968;8.844;2022-09-09T02:43:34;12.70;99.90
20891;DHT22;10605;52.968;8.844;2022-09-09T02:46:08;12.70;99.90
20891;DHT22;10605;52.968;8.844;2022-09-09T02:48:52;12.70;99.90
20891;DHT22;10605;52.968;8.844;2022-09-09T02:51:53;12.70;99.90
20891;DHT22;10605;52.968;8.844;2022-09-09T02:54:31;12.60;99.90
20891;DHT22;10605;52.968;8.844;2022-09-09T02:57:12;12.50;99.90
20891;DHT22;10605;52.968;8.844;2022-09-09T02:59:40;12.50;99.90
20891;DHT22;10605;52.968;8.844;2022-09-09T03:02:06;12.50;99.90
20891;DHT22;10605;52.968;8.844;2022-09-09T03:04:32;12.60;99.90
20891;DHT22;10605;52.968;8.844;2022-09-09T03:06:58;12.60;99.90
20891;DHT22;10605;52.968;8.844;2022-09-09T03:09:24;12.60;99.90
20891;DHT22;10605;52.968;8.844;2022-09-09T03:11:51;12.70;99.90
20891;DHT22;10605;52.968;8.844;2022-09-09T03:14:17;12.70;99.90
20891;DHT22;10605;52.968;8.844;2022-09-09T03:16:47;12.70;99.90
20891;DHT22;10605;52.968;8.844;2022-09-09T03:19:12;12.80;99.90
20891;DHT22;10605;52.968;8.844;2022-09-09T03:21:38;12.90;99.90
20891;DHT22;10605;52.968;8.844;2022-09-09T03:24:04;13.10;99.90
20891;DHT22;10605;52.968;8.844;2022-09-09T03:26:30;13.20;99.90
20891;DHT22;10605;52.968;8.844;2022-09-09T03:28:57;13.40;99.90
20891;DHT22;10605;52.968;8.844;2022-09-09T03:31:22;13.50;99.90
20891;DHT22;10605;52.968;8.844;2022-09-09T03:33:48;13.60;99.90
20891;DHT22;10605;52.968;8.844;2022-09-09T03:36:14;13.70;99.90
20891;DHT22;10605;52.968;8.844;2022-09-09T03:38:41;13.70;99.90
20891;DHT22;10605;52.968;8.844;2022-09-09T03:41:07;13.70;99.90
20891;DHT22;10605;52.968;8.844;2022-09-09T03:43:33;13.80;99.90
20891;DHT22;10605;52.968;8.844;2022-09-09T03:45:59;13.80;99.90
20891;DHT22;10605;52.968;8.844;2022-09-09T03:48:25;13.80;99.90
20891;DHT22;10605;52.968;8.844;2022-09-09T03:50:54;13.90;99.90
20891;DHT22;10605;52.968;8.844;2022-09-09T03:53:22;13.80;99.90
20891;DHT22;10605;52.968;8.844;2022-09-09T03:55:50;13.80;99.90
20891;DHT22;10605;52.968;8.844;2022-09-09T03:58:20;13.80;99.90
20891;DHT22;10605;52.968;8.844;2022-09-09T04:01:01;13.80;99.90
20891;DHT22;10605;52.968;8.844;2022-09-09T04:03:28;13.90;99.90
20891;DHT22;10605;52.968;8.844;2022-09-09T04:05:55;13.80;99.90
20891;DHT22;10605;52.968;8.844;2022-09-09T04:08:22;13.90;99.90
20891;DHT22;10605;52.968;8.844;2022-09-09T04:10:49;13.90;99.90
20891;DHT22;10605;52.968;8.844;2022-09-09T04:13:16;13.90;99.90
20891;DHT22;10605;52.968;8.844;2022-09-09T04:15:56;13.90;99.90
20891;DHT22;10605;52.968;8.844;2022-09-09T04:18:23;13.90;99.90
20891;DHT22;10605;52.968;8.844;2022-09-09T04:20:50;14.00;99.90
20891;DHT22;10605;52.968;8.844;2022-09-09T04:23:17;14.00;99.90
20891;DHT22;10605;52.968;8.844;2022-09-09T04:25:48;14.00;99.90
20891;DHT22;10605;52.968;8.844;2022-09-09T04:28:16;14.00;99.90
20891;DHT22;10605;52.968;8.844;2022-09-09T04:30:42;14.10;99.90
20891;DHT22;10605;52.968;8.844;2022-09-09T04:33:09;14.10;99.90
20891;DHT22;10605;52.968;8.844;2022-09-09T04:35:36;14.20;99.90
20891;DHT22;10605;52.968;8.844;2022-09-09T04:38:01;14.10;99.90
20891;DHT22;10605;52.968;8.844;2022-09-09T04:40:31;14.20;99.90
20891;DHT22;10605;52.968;8.844;2022-09-09T04:43:00;14.10;99.90
20891;DHT22;10605;52.968;8.844;2022-09-09T04:45:26;14.20;99.90
20891;DHT22;10605;52.968;8.844;2022-09-09T04:47:53;14.10;99.90
20891;DHT22;10605;52.968;8.844;2022-09-09T04:50:19;14.10;99.90
20891;DHT22;10605;52.968;8.844;2022-09-09T04:52:45;14.10;99.90
20891;DHT22;10605;52.968;8.844;2022-09-09T04:55:11;14.10;99.90
20891;DHT22;10605;52.968;8.844;2022-09-09T04:57:38;14.00;99.90
20891;DHT22;10605;52.968;8.844;2022-09-09T05:00:05;14.00;99.90
20891;DHT22;10605;52.968;8.844;2022-09-09T05:02:31;14.00;99.90
20891;DHT22;10605;52.968;8.844;2022-09-09T05:04:58;14.00;99.90
20891;DHT22;10605;52.968;8.844;2022-09-09T05:07:24;14.00;99.90
20891;DHT22;10605;52.968;8.844;2022-09-09T05:09:51;13.90;99.90
20891;DHT22;10605;52.968;8.844;2022-09-09T05:12:17;14.00;99.90
20891;DHT22;10605;52.968;8.844;2022-09-09T05:14:43;14.00;99.90
20891;DHT22;10605;52.968;8.844;2022-09-09T05:20:03;14.20;99.90
20891;DHT22;10605;52.968;8.844;2022-09-09T05:22:40;14.40;99.90
20891;DHT22;10605;52.968;8.844;2022-09-09T05:25:06;14.40;99.90
20891;DHT22;10605;52.968;8.844;2022-09-09T05:27:34;14.40;99.90
20891;DHT22;10605;52.968;8.844;2022-09-09T05:30:22;14.40;99.90
20891;DHT22;10605;52.968;8.844;2022-09-09T05:33:23;14.30;99.90
20891;DHT22;10605;52.968;8.844;2022-09-09T05:37:02;14.40;99.90
20891;DHT22;10605;52.968;8.844;2022-09-09T05:40:16;14.30;99.90
20891;DHT22;10605;52.968;8.844;2022-09-09T05:47:27;14.60;99.90
20891;DHT22;10605;52.968;8.844;2022-09-09T05:49:59;15.00;99.90
20891;DHT22;10605;52.968;8.844;2022-09-09T05:56:34;15.40;99.90
20891;DHT22;10605;52.968;8.844;2022-09-09T06:20:27;17.00;99.90
20891;DHT22;10605;52.968;8.844;2022-09-09T06:41:32;18.10;99.90
20891;DHT22;10605;52.968;8.844;2022-09-09T06:44:09;18.10;99.90
20891;DHT22;10605;52.968;8.844;2022-09-09T07:01:19;20.30;99.90
20891;DHT22;10605;52.968;8.844;2022-09-09T07:03:59;21.80;99.90
20891;DHT22;10605;52.968;8.844;2022-09-09T07:06:58;22.80;99.90
20891;DHT22;10605;52.968;8.844;2022-09-09T07:09:44;23.70;99.90
20891;DHT22;10605;52.968;8.844;2022-09-09T07:12:20;23.60;99.90
20891;DHT22;10605;52.968;8.844;2022-09-09T07:14:47;23.60;99.90
20891;DHT22;10605;52.968;8.844;2022-09-09T07:17:40;23.90;99.90
20891;DHT22;10605;52.968;8.844;2022-09-09T07:20:51;23.90;99.90
20891;DHT22;10605;52.968;8.844;2022-09-09T07:23:34;24.70;99.90
20891;DHT22;10605;52.968;8.844;2022-09-09T07:26:40;24.30;99.90
20891;DHT22;10605;52.968;8.844;2022-09-09T07:29:10;24.30;99.90
20891;DHT22;10605;52.968;8.844;2022-09-09T07:31:39;24.80;99.90
20891;DHT22;10605;52.968;8.844;2022-09-09T07:34:11;25.20;99.90
20891;DHT22;10605;52.968;8.844;2022-09-09T07:36:39;25.30;99.90
20891;DHT22;10605;52.968;8.844;2022-09-09T07:39:15;25.20;99.90
20891;DHT22;10605;52.968;8.844;2022-09-09T07:41:54;25.00;99.90
20891;DHT22;10605;52.968;8.844;2022-09-09T07:44:24;25.70;99.90
20891;DHT22;10605;52.968;8.844;2022-09-09T07:46:59;26.60;99.90
20891;DHT22;10605;52.968;8.844;2022-09-09T07:49:39;26.20;99.90
20891;DHT22;10605;52.968;8.844;2022-09-09T07:52:06;25.90;99.90
20891;DHT22;10605;52.968;8.844;2022-09-09T07:54:34;25.80;99.90
20891;DHT22;10605;52.968;8.844;2022-09-09T07:57:05;26.10;99.90
20891;DHT22;10605;52.968;8.844;2022-09-09T07:59:35;26.40;99.90
20891;DHT22;10605;52.968;8.844;2022-09-09T08:02:01;26.10;99.90
20891;DHT22;10605;52.968;8.844;2022-09-09T08:04:32;26.30;99.90
20891;DHT22;10605;52.968;8.844;2022-09-09T08:07:05;27.10;99.90
20891;DHT22;10605;52.968;8.844;2022-09-09T08:09:37;27.10;99.90
20891;DHT22;10605;52.968;8.844;2022-09-09T08:12:03;26.60;99.90
20891;DHT22;10605;52.968;8.844;2022-09-09T08:14:32;26.40;99.90
20891;DHT22;10605;52.968;8.844;2022-09-09T08:17:23;26.90;99.90
20891;DHT22;10605;52.968;8.844;2022-09-09T08:19:49;26.70;99.90
20891;DHT22;10605;52.968;8.844;2022-09-09T08:22:15;26.30;99.90
20891;DHT22;10605;52.968;8.844;2022-09-09T08:24:41;26.90;99.90
20891;DHT22;10605;52.968;8.844;2022-09-09T08:27:07;27.50;99.90
20891;DHT22;10605;52.968;8.844;2022-09-09T08:36:55;28.20;99.90
20891;DHT22;10605;52.968;8.844;2022-09-09T11:20:53;27.20;98.60
20891;DHT22;10605;52.968;8.844;2022-09-09T11:40:25;24.50;99.90
20891;DHT22;10605;52.968;8.844;2022-09-09T11:43:23;24.30;99.90
20891;DHT22;10605;52.968;8.844;2022-09-09T11:45:54;23.70;99.90
20891;DHT22;10605;52.968;8.844;2022-09-09T11:48:58;23.60;99.90
20891;DHT22;10605;52.968;8.844;2022-09-09T11:56:42;23.40;99.90
20891;DHT22;10605;52.968;8.844;2022-09-09T11:59:29;23.20;99.90
20891;DHT22;10605;52.968;8.844;2022-09-09T12:02:09;22.90;99.90
20891;DHT22;10605;52.968;8.844;2022-09-09T12:25:41;22.20;99.90
20891;DHT22;10605;52.968;8.844;2022-09-09T12:31:26;22.00;99.90
20891;DHT22;10605;52.968;8.844;2022-09-09T14:28:58;18.40;99.90
20891;DHT22;10605;52.968;8.844;2022-09-09T14:35:24;18.30;99.90
20891;DHT22;10605;52.968;8.844;2022-09-09T14:38:21;18.10;99.90
20891;DHT22;10605;52.968;8.844;2022-09-09T14:41:59;17.90;99.90
20891;DHT22;10605;52.968;8.844;2022-09-09T14:45:19;17.70;99.90
20891;DHT22;10605;52.968;8.844;2022-09-09T14:48:56;17.50;99.90
20891;DHT22;10605;52.968;8.844;2022-09-09T15:02:54;17.60;99.90
20891;DHT22;10605;52.968;8.844;2022-09-09T15:06:36;17.40;99.90
20891;DHT22;10605;52.968;8.844;2022-09-09T15:09:59;17.40;99.90
20891;DHT22;10605;52.968;8.844;2022-09-09T15:13:28;17.30;99.90
20891;DHT22;10605;52.968;8.844;2022-09-09T15:23:01;17.10;99.90
20891;DHT22;10605;52.968;8.844;2022-09-09T16:07:40;16.90;99.90
20891;DHT22;10605;52.968;8.844;2022-09-09T17:06:15;16.00;99.90
20891;DHT22;10605;52.968;8.844;2022-09-09T17:13:24;16.20;99.90
20891;DHT22;10605;52.968;8.844;2022-09-09T17:16:53;16.20;99.90
20891;DHT22;10605;52.968;8.844;2022-09-09T17:23:05;16.10;99.90
20891;DHT22;10605;52.968;8.844;2022-09-09T17:26:13;16.00;99.90
20891;DHT22;10605;52.968;8.844;2022-09-09T17:29:12;15.90;99.90
20891;DHT22;10605;52.968;8.844;2022-09-09T17:32:06;16.00;99.90
20891;DHT22;10605;52.968;8.844;2022-09-09T18:02:54;16.00;99.90
20891;DHT22;10605;52.968;8.844;2022-09-09T18:06:09;15.90;99.90
20891;DHT22;10605;52.968;8.844;2022-09-09T20:07:39;14.60;99.90
20891;DHT22;10605;52.968;8.844;2022-09-09T20:24:40;14.70;99.90
20891;DHT22;10605;52.968;8.844;2022-09-09T20:45:07;14.80;99.90
20891;DHT22;10605;52.968;8.844;2022-09-09T20:51:50;14.70;99.90
20891;DHT22;10605;52.968;8.844;2022-09-09T22:02:34;14.30;99.90
20891;DHT22;10605;52.968;8.844;2022-09-09T22:09:10;14.20;99.90
20891;DHT22;10605;52.968;8.844;2022-09-09T22:11:37;14.20;99.90
20891;DHT22;10605;52.968;8.844;2022-09-09T22:14:03;14.20;99.90
20891;DHT22;10605;52.968;8.844;2022-09-09T22:16:30;14.20;99.90
20891;DHT22;10605;52.968;8.844;2022-09-09T22:18:58;14.20;99.90
20891;DHT22;10605;52.968;8.844;2022-09-09T22:21:26;14.20;99.90
20891;DHT22;10605;52.968;8.844;2022-09-09T22:24:06;14.20;99.90
20891;DHT22;10605;52.968;8.844;2022-09-09T22:26:45;14.20;99.90
20891;DHT22;10605;52.968;8.844;2022-09-09T22:29:13;14.30;99.90
20891;DHT22;10605;52.968;8.844;2022-09-09T22:31:39;14.30;99.90
20891;DHT22;10605;52.968;8.844;2022-09-09T22:34:05;14.40;99.90
20891;DHT22;10605;52.968;8.844;2022-09-09T22:36:31;14.40;99.90
20891;DHT22;10605;52.968;8.844;2022-09-09T22:38:57;14.40;99.90
20891;DHT22;10605;52.968;8.844;2022-09-09T22:41:23;14.40;99.90
20891;DHT22;10605;52.968;8.844;2022-09-09T22:43:49;14.50;99.90
20891;DHT22;10605;52.968;8.844;2022-09-09T22:46:16;14.50;99.90
20891;DHT22;10605;52.968;8.844;2022-09-09T22:48:43;14.60;99.90
20891;DHT22;10605;52.968;8.844;2022-09-09T22:51:12;14.60;99.90
20891;DHT22;10605;52.968;8.844;2022-09-09T22:53:39;14.60;99.90
20891;DHT22;10605;52.968;8.844;2022-09-09T22:56:07;14.60;99.90
20891;DHT22;10605;52.968;8.844;2022-09-09T22:58:35;14.50;99.90
20891;DHT22;10605;52.968;8.844;2022-09-09T23:01:17;14.50;99.90
20891;DHT22;10605;52.968;8.844;2022-09-09T23:03:47;14.50;99.90
20891;DHT22;10605;52.968;8.844;2022-09-09T23:06:21;14.50;99.90
20891;DHT22;10605;52.968;8.844;2022-09-09T23:08:49;14.40;99.90
20891;DHT22;10605;52.968;8.844;2022-09-09T23:11:16;14.40;99.90
20891;DHT22;10605;52.968;8.844;2022-09-09T23:13:50;14.40;99.90
20891;DHT22;10605;52.968;8.844;2022-09-09T23:16:22;14.40;99.90
20891;DHT22;10605;52.968;8.844;2022-09-09T23:18:48;14.50;99.90
20891;DHT22;10605;52.968;8.844;2022-09-09T23:21:20;14.40;99.90
20891;DHT22;10605;52.968;8.844;2022-09-09T23:23:47;14.40;99.90
20891;DHT22;10605;52.968;8.844;2022-09-09T23:26:14;14.50;99.90
20891;DHT22;10605;52.968;8.844;2022-09-09T23:28:46;14.50;99.90
20891;DHT22;10605;52.968;8.844;2022-09-09T23:31:14;14.60;99.90
20891;DHT22;10605;52.968;8.844;2022-09-09T23:33:41;14.60;99.90
20891;DHT22;10605;52.968;8.844;2022-09-09T23:36:11;14.50;99.90
20891;DHT22;10605;52.968;8.844;2022-09-09T23:38:38;14.50;99.90
20891;DHT22;10605;52.968;8.844;2022-09-09T23:41:07;14.60;99.90
20891;DHT22;10605;52.968;8.844;2022-09-09T23:43:33;14.50;99.90
20891;DHT22;10605;52.968;8.844;2022-09-09T23:46:00;14.50;99.90
20891;DHT22;10605;52.968;8.844;2022-09-09T23:48:27;14.50;99.90
20891;DHT22;10605;52.968;8.844;2022-09-09T23:50:52;14.50;99.90
20891;DHT22;10605;52.968;8.844;2022-09-09T23:53:20;14.50;99.90
20891;DHT22;10605;52.968;8.844;2022-09-09T23:55:46;14.50;99.90
20891;DHT22;10605;52.968;8.844;2022-09-09T23:58:12;14.50;99.90
